createdAt,value
2019-01-06T00:01:42.446Z,12.30
2019-01-06T00:06:54.464Z,11.30
2019-01-06T00:11:50.705Z,11.53
2019-01-06T00:16:55.918Z,12.07
2019-01-06T00:22:08.486Z,10.67
2019-01-06T00:27:20.977Z,11.57
2019-01-06T00:32:26.248Z,11.00
2019-01-06T00:37:25.494Z,13.73
2019-01-06T00:42:24.404Z,13.03
2019-01-06T00:47:36.683Z,12.57
2019-01-06T00:52:41.727Z,12.53
2019-01-06T00:57:37.979Z,11.77
2019-01-06T01:02:50.191Z,12.63
2019-01-06T01:08:02.798Z,14.43
2019-01-06T01:13:13.817Z,11.20
2019-01-06T01:18:18.616Z,12.90
2019-01-06T01:23:30.797Z,12.53
2019-01-06T01:28:43.564Z,12.93
2019-01-06T01:33:55.047Z,10.67
2019-01-06T01:38:54.389Z,9.87
2019-01-06T01:43:59.133Z,9.17
2019-01-06T01:49:11.189Z,9.93
2019-01-06T01:54:23.728Z,9.33
2019-01-06T01:59:37.812Z,9.67
2019-01-06T02:04:50.021Z,9.20
2019-01-06T02:09:52.076Z,7.83
2019-01-06T02:14:54.498Z,7.97
2019-01-06T02:19:56.451Z,6.97
2019-01-06T02:24:52.717Z,7.07
2019-01-06T02:29:48.961Z,8.17
2019-01-06T02:35:00.450Z,7.33
2019-01-06T02:39:59.579Z,8.60
2019-01-06T02:44:58.409Z,8.83
2019-01-06T02:50:09.817Z,8.97
2019-01-06T02:55:10.562Z,9.97
2019-01-06T03:00:17.558Z,10.47
2019-01-06T03:05:19.360Z,11.20
2019-01-06T03:10:24.698Z,10.67
2019-01-06T03:15:26.506Z,10.60
2019-01-06T03:20:25.294Z,9.97
2019-01-06T03:25:33.722Z,9.73
2019-01-06T03:30:40.016Z,9.17
2019-01-06T03:35:49.560Z,10.20
2019-01-06T03:40:48.499Z,10.03
2019-01-06T03:45:45.682Z,11.03
2019-01-06T03:50:57.974Z,11.63
2019-01-06T03:55:59.689Z,10.07
2019-01-06T04:01:04.589Z,9.80
2019-01-06T04:06:00.860Z,10.47
2019-01-06T04:11:15.289Z,8.83
2019-01-06T04:16:24.795Z,7.30
2019-01-06T04:21:27.069Z,8.87
2019-01-06T04:26:25.698Z,8.90
2019-01-06T04:31:24.660Z,8.03
2019-01-06T04:36:36.695Z,9.03
2019-01-06T04:41:35.356Z,9.10
2019-01-06T04:46:49.771Z,9.47
2019-01-06T04:51:48.437Z,9.33
2019-01-06T04:56:45.647Z,9.77
2019-01-06T05:01:59.992Z,10.20
2019-01-06T05:06:59.047Z,10.60
2019-01-06T05:12:11.247Z,9.40
2019-01-06T05:17:22.418Z,10.53
2019-01-06T05:22:18.669Z,10.03
2019-01-06T05:27:20.997Z,10.07
2019-01-06T05:32:32.001Z,10.60
2019-01-06T05:37:30.885Z,10.67
2019-01-06T05:42:45.136Z,8.27
2019-01-06T05:47:44.355Z,9.10
2019-01-06T05:52:40.656Z,10.63
2019-01-06T05:57:42.623Z,11.33
2019-01-06T06:02:39.920Z,11.27
2019-01-06T06:07:52.454Z,11.97
2019-01-06T06:12:54.800Z,11.10
2019-01-06T06:18:07.271Z,11.43
2019-01-06T06:23:18.451Z,11.53
2019-01-06T06:28:31.122Z,9.83
2019-01-06T06:33:35.990Z,10.60
2019-01-06T06:38:41.142Z,9.57
2019-01-06T06:43:42.886Z,11.23
2019-01-06T06:48:44.891Z,9.07
2019-01-06T06:53:57.010Z,9.30
2019-01-06T06:58:51.368Z,12.97
2019-01-06T07:03:47.386Z,11.00
2019-01-06T07:08:43.727Z,12.97
2019-01-06T07:13:51.626Z,11.03
2019-01-06T07:18:59.823Z,10.77
2019-01-06T07:23:56.724Z,11.17
2019-01-06T07:29:01.446Z,10.93
2019-01-06T07:34:01.881Z,12.33
2019-01-06T07:39:06.872Z,11.73
2019-01-06T07:44:15.083Z,13.43
2019-01-06T07:49:14.932Z,12.43
2019-01-06T07:54:09.273Z,13.13
2019-01-06T07:59:05.531Z,12.30
2019-01-06T08:04:07.551Z,12.90
2019-01-06T08:09:03.799Z,11.63
2019-01-06T08:14:00.055Z,13.20
2019-01-06T08:19:14.269Z,11.43
2019-01-06T08:24:19.401Z,11.37
2019-01-06T08:29:21.742Z,12.00
2019-01-06T08:34:34.092Z,11.87
2019-01-06T08:39:30.332Z,10.87
2019-01-06T08:44:42.653Z,9.90
2019-01-06T08:49:53.630Z,10.77
2019-01-06T08:55:05.589Z,10.50
2019-01-06T09:00:04.510Z,10.20
2019-01-06T09:05:03.434Z,11.53
2019-01-06T09:09:57.806Z,11.27
2019-01-06T09:14:52.171Z,10.80
2019-01-06T09:20:04.650Z,10.07
2019-01-06T09:25:17.115Z,10.47
2019-01-06T09:30:29.626Z,11.47
2019-01-06T09:35:42.230Z,10.27
2019-01-06T09:40:38.526Z,11.73
2019-01-06T09:45:40.247Z,10.10
2019-01-06T09:50:42.370Z,9.60
2019-01-06T09:55:38.621Z,10.00
2019-01-06T10:00:50.531Z,9.70
2019-01-06T10:05:52.341Z,8.90
2019-01-06T10:11:05.077Z,8.30
2019-01-06T10:16:17.213Z,7.03
2019-01-06T10:21:29.652Z,7.30
2019-01-06T10:26:37.851Z,6.27
2019-01-06T10:31:36.760Z,9.50
2019-01-06T10:36:39.027Z,8.30
2019-01-06T10:41:35.289Z,7.67
2019-01-06T10:46:34.281Z,7.47
2019-01-06T10:51:40.210Z,6.40
2019-01-06T10:56:48.272Z,6.17
2019-01-06T11:02:00.778Z,5.70
2019-01-06T11:06:57.026Z,5.03
2019-01-06T11:11:54.342Z,5.67
2019-01-06T11:17:08.453Z,4.80
2019-01-06T11:22:02.829Z,4.70
2019-01-06T11:27:17.373Z,4.97
2019-01-06T11:32:28.762Z,5.20
2019-01-06T11:37:25.013Z,6.40
2019-01-06T11:42:39.080Z,6.10
2019-01-06T11:47:51.255Z,5.03
2019-01-06T11:53:05.766Z,4.93
2019-01-06T11:58:17.726Z,4.27
2019-01-06T12:03:32.266Z,4.33
2019-01-06T12:08:28.507Z,4.60
2019-01-06T12:13:24.748Z,4.30
2019-01-06T12:18:37.073Z,5.13
2019-01-06T12:23:35.721Z,4.73
2019-01-06T12:28:35.782Z,4.90
2019-01-06T12:33:37.559Z,4.70
2019-01-06T12:38:39.506Z,4.60
2019-01-06T12:43:44.732Z,4.20
2019-01-06T12:48:43.723Z,5.60
2019-01-06T12:53:40.538Z,4.30
2019-01-06T12:58:55.495Z,3.90
2019-01-06T13:03:51.717Z,4.30
2019-01-06T13:09:04.239Z,4.10
2019-01-06T13:14:20.235Z,3.83
2019-01-06T13:19:16.479Z,3.87
2019-01-06T13:24:12.735Z,3.80
2019-01-06T13:29:17.862Z,3.67
2019-01-06T13:34:30.188Z,3.67
2019-01-06T13:39:29.383Z,3.77
2019-01-06T13:44:43.696Z,3.60
2019-01-06T13:49:56.025Z,4.30
2019-01-06T13:55:07.956Z,4.33
2019-01-06T14:00:04.189Z,4.00
2019-01-06T14:05:18.501Z,4.07
2019-01-06T14:10:30.512Z,4.67
2019-01-06T14:15:32.451Z,4.27
2019-01-06T14:20:28.696Z,4.63
2019-01-06T14:25:25.502Z,4.30
2019-01-06T14:30:21.751Z,4.83
2019-01-06T14:35:17.990Z,6.87
2019-01-06T14:40:16.927Z,6.40
2019-01-06T14:45:29.279Z,5.50
2019-01-06T14:50:41.382Z,5.10
2019-01-06T14:55:37.680Z,4.97
2019-01-06T15:00:32.041Z,5.17
2019-01-06T15:05:37.430Z,5.90
2019-01-06T15:10:36.438Z,6.87
2019-01-06T15:15:48.884Z,7.37
2019-01-06T15:20:48.075Z,6.00
2019-01-06T15:25:50.099Z,4.90
2019-01-06T15:31:04.146Z,5.00
2019-01-06T15:36:15.270Z,5.10
2019-01-06T15:41:18.577Z,6.87
2019-01-06T15:46:17.766Z,5.43
2019-01-06T15:51:14.013Z,5.53
2019-01-06T15:56:10.239Z,6.37
2019-01-06T16:01:12.301Z,7.40
2019-01-06T16:06:17.430Z,7.20
2019-01-06T16:11:34.649Z,6.67
2019-01-06T16:16:36.333Z,7.40
2019-01-06T16:21:50.373Z,7.30
2019-01-06T16:26:46.616Z,7.70
2019-01-06T16:31:42.867Z,6.67
2019-01-06T16:36:55.352Z,7.40
2019-01-06T16:42:01.417Z,6.80
2019-01-06T16:47:15.329Z,6.77
2019-01-06T16:52:12.491Z,6.13
2019-01-06T16:57:08.752Z,6.00
2019-01-06T17:02:04.979Z,6.20
2019-01-06T17:07:06.938Z,5.50
2019-01-06T17:12:19.507Z,5.87
2019-01-06T17:17:24.456Z,5.67
2019-01-06T17:22:23.412Z,5.80
2019-01-06T17:27:35.703Z,6.00
2019-01-06T17:32:48.023Z,6.50
2019-01-06T17:37:52.844Z,6.07
2019-01-06T17:42:58.283Z,7.07
2019-01-06T17:48:10.502Z,6.00
2019-01-06T17:53:04.863Z,6.10
2019-01-06T17:58:07.148Z,7.10
2019-01-06T18:03:12.320Z,6.90
2019-01-06T18:08:11.294Z,7.80
2019-01-06T18:13:20.803Z,7.77
2019-01-06T18:18:17.058Z,7.83
2019-01-06T18:23:29.513Z,8.33
2019-01-06T18:28:28.334Z,9.77
2019-01-06T18:33:36.638Z,9.70
2019-01-06T18:38:49.056Z,9.80
2019-01-06T18:44:01.668Z,8.53
2019-01-06T18:49:03.835Z,8.53
2019-01-06T18:54:18.079Z,7.93
2019-01-06T18:59:17.287Z,8.23
2019-01-06T19:04:29.814Z,7.47
2019-01-06T19:09:24.189Z,8.07
2019-01-06T19:14:20.436Z,6.60
2019-01-06T19:19:32.502Z,6.47
2019-01-06T19:24:43.765Z,6.40
2019-01-06T19:29:39.992Z,8.07
2019-01-06T19:34:54.307Z,7.73
2019-01-06T19:40:02.661Z,7.07
2019-01-06T19:44:58.892Z,8.10
2019-01-06T19:50:11.017Z,8.77
2019-01-06T19:55:10.526Z,8.13
2019-01-06T20:00:15.758Z,7.93
2019-01-06T20:05:11.969Z,7.97
2019-01-06T20:10:26.302Z,8.23
2019-01-06T20:15:34.569Z,7.70
2019-01-06T20:20:47.092Z,7.50
2019-01-06T20:25:53.465Z,7.10
2019-01-06T20:30:53.679Z,7.73
2019-01-06T20:35:58.801Z,6.63
2019-01-06T20:40:57.696Z,6.60
2019-01-06T20:46:12.253Z,6.63
2019-01-06T20:51:14.365Z,7.70
2019-01-06T20:56:26.811Z,9.23
2019-01-06T21:01:33.119Z,9.60
2019-01-06T21:06:29.367Z,9.27
2019-01-06T21:11:28.725Z,9.20
2019-01-06T21:16:41.139Z,9.87
2019-01-06T21:21:40.097Z,10.93
2019-01-06T21:26:34.473Z,12.27
2019-01-06T21:31:42.303Z,10.90
2019-01-06T21:36:54.342Z,11.60
2019-01-06T21:42:06.510Z,11.27
2019-01-06T21:47:12.012Z,13.53
2019-01-06T21:52:24.478Z,11.13
2019-01-06T21:57:26.480Z,9.93
2019-01-06T22:02:28.682Z,11.00
2019-01-06T22:07:24.928Z,12.73
2019-01-06T22:12:33.143Z,13.13
2019-01-06T22:17:47.390Z,13.23
2019-01-06T22:22:59.775Z,13.30
2019-01-06T22:27:58.962Z,16.37
2019-01-06T22:33:03.891Z,16.00
2019-01-06T22:38:00.133Z,19.60
2019-01-06T22:43:01.829Z,19.30
2019-01-06T22:47:58.163Z,16.30
2019-01-06T22:53:12.418Z,19.83
2019-01-06T22:58:24.718Z,19.87
2019-01-06T23:03:33.035Z,17.97
2019-01-06T23:08:35.314Z,16.23
2019-01-06T23:13:31.534Z,15.17
2019-01-06T23:18:27.823Z,14.13
2019-01-06T23:23:31.177Z,16.23
2019-01-06T23:28:39.243Z,15.37
2019-01-06T23:33:51.628Z,16.97
2019-01-06T23:39:03.834Z,15.30
2019-01-06T23:44:02.521Z,16.07
2019-01-06T23:49:04.423Z,17.03
2019-01-06T23:54:00.674Z,17.27
2019-01-06T23:59:02.673Z,19.97
